sensor_id;sensor_type;location;lat;lon;timestamp;pressure;altitude;pressure_sealevel;temperature;humidity
25560;BME280;13450;49.374;8.584;2024-03-22T00:00:14;101235.50;;;9.08;100.00
25560;BME280;13450;49.374;8.584;2024-03-22T00:02:39;101225.66;;;9.09;100.00
25560;BME280;13450;49.374;8.584;2024-03-22T00:05:05;101229.31;;;9.08;100.00
25560;BME280;13450;49.374;8.584;2024-03-22T00:07:30;101226.28;;;9.02;100.00
25560;BME280;13450;49.374;8.584;2024-03-22T00:09:56;101233.16;;;9.05;100.00
25560;BME280;13450;49.374;8.584;2024-03-22T00:12:22;101232.66;;;9.10;100.00
25560;BME280;13450;49.374;8.584;2024-03-22T00:14:50;101222.84;;;9.10;100.00
25560;BME280;13450;49.374;8.584;2024-03-22T00:17:17;101221.31;;;9.08;100.00
25560;BME280;13450;49.374;8.584;2024-03-22T00:19:43;101213.97;;;9.10;100.00
25560;BME280;13450;49.374;8.584;2024-03-22T00:22:08;101216.78;;;9.08;100.00
25560;BME280;13450;49.374;8.584;2024-03-22T00:24:34;101215.44;;;9.04;100.00
25560;BME280;13450;49.374;8.584;2024-03-22T00:26:59;101214.91;;;9.00;100.00
25560;BME280;13450;49.374;8.584;2024-03-22T00:29:27;101212.88;;;8.94;100.00
25560;BME280;13450;49.374;8.584;2024-03-22T00:31:54;101212.50;;;8.89;100.00
25560;BME280;13450;49.374;8.584;2024-03-22T00:34:20;101210.13;;;8.86;100.00
25560;BME280;13450;49.374;8.584;2024-03-22T00:36:45;101202.81;;;8.88;100.00
25560;BME280;13450;49.374;8.584;2024-03-22T00:39:11;101192.69;;;8.92;100.00
25560;BME280;13450;49.374;8.584;2024-03-22T00:41:36;101202.66;;;8.89;100.00
25560;BME280;13450;49.374;8.584;2024-03-22T00:44:01;101193.13;;;8.87;100.00
25560;BME280;13450;49.374;8.584;2024-03-22T00:46:29;101193.06;;;8.79;100.00
25560;BME280;13450;49.374;8.584;2024-03-22T00:48:54;101180.50;;;8.71;100.00
25560;BME280;13450;49.374;8.584;2024-03-22T00:51:19;101185.75;;;8.62;100.00
25560;BME280;13450;49.374;8.584;2024-03-22T00:53:45;101175.88;;;8.55;100.00
25560;BME280;13450;49.374;8.584;2024-03-22T00:56:10;101171.13;;;8.48;100.00
25560;BME280;13450;49.374;8.584;2024-03-22T00:58:38;101163.88;;;8.41;100.00
25560;BME280;13450;49.374;8.584;2024-03-22T01:01:03;101163.63;;;8.34;100.00
25560;BME280;13450;49.374;8.584;2024-03-22T01:03:28;101155.25;;;8.29;100.00
25560;BME280;13450;49.374;8.584;2024-03-22T01:05:56;101159.59;;;8.30;100.00
25560;BME280;13450;49.374;8.584;2024-03-22T01:08:22;101151.91;;;8.27;100.00
25560;BME280;13450;49.374;8.584;2024-03-22T01:10:47;101143.22;;;8.24;100.00
25560;BME280;13450;49.374;8.584;2024-03-22T01:13:13;101145.34;;;8.21;100.00
25560;BME280;13450;49.374;8.584;2024-03-22T01:15:38;101147.19;;;8.20;100.00
25560;BME280;13450;49.374;8.584;2024-03-22T01:18:04;101149.84;;;8.20;100.00
25560;BME280;13450;49.374;8.584;2024-03-22T01:20:29;101148.03;;;8.21;100.00
25560;BME280;13450;49.374;8.584;2024-03-22T01:22:55;101140.31;;;8.18;100.00
25560;BME280;13450;49.374;8.584;2024-03-22T01:25:20;101140.78;;;8.13;100.00
25560;BME280;13450;49.374;8.584;2024-03-22T01:27:47;101142.75;;;8.11;100.00
25560;BME280;13450;49.374;8.584;2024-03-22T01:30:13;101142.38;;;8.06;100.00
25560;BME280;13450;49.374;8.584;2024-03-22T01:32:38;101141.72;;;8.04;100.00
25560;BME280;13450;49.374;8.584;2024-03-22T01:35:04;101139.03;;;8.04;100.00
25560;BME280;13450;49.374;8.584;2024-03-22T01:37:29;101140.31;;;8.00;100.00
25560;BME280;13450;49.374;8.584;2024-03-22T01:39:57;101138.94;;;7.95;100.00
25560;BME280;13450;49.374;8.584;2024-03-22T01:42:25;101135.75;;;7.92;100.00
25560;BME280;13450;49.374;8.584;2024-03-22T01:44:50;101130.56;;;7.90;100.00
25560;BME280;13450;49.374;8.584;2024-03-22T01:47:16;101121.88;;;7.88;100.00
25560;BME280;13450;49.374;8.584;2024-03-22T01:49:42;101127.19;;;7.88;100.00
25560;BME280;13450;49.374;8.584;2024-03-22T01:52:08;101125.78;;;7.94;100.00
25560;BME280;13450;49.374;8.584;2024-03-22T01:54:33;101110.31;;;7.97;100.00
25560;BME280;13450;49.374;8.584;2024-03-22T01:56:58;101114.50;;;8.00;100.00
25560;BME280;13450;49.374;8.584;2024-03-22T01:59:26;101114.19;;;8.03;100.00
25560;BME280;13450;49.374;8.584;2024-03-22T02:01:55;101115.72;;;8.06;100.00
25560;BME280;13450;49.374;8.584;2024-03-22T02:04:21;101114.72;;;8.07;100.00
25560;BME280;13450;49.374;8.584;2024-03-22T02:06:46;101119.53;;;8.03;100.00
25560;BME280;13450;49.374;8.584;2024-03-22T02:09:14;101117.84;;;8.02;100.00
25560;BME280;13450;49.374;8.584;2024-03-22T02:11:40;101111.38;;;8.05;100.00
25560;BME280;13450;49.374;8.584;2024-03-22T02:14:06;101114.44;;;8.10;100.00
25560;BME280;13450;49.374;8.584;2024-03-22T02:16:31;101110.47;;;8.14;100.00
25560;BME280;13450;49.374;8.584;2024-03-22T02:18:56;101106.50;;;8.18;100.00
25560;BME280;13450;49.374;8.584;2024-03-22T02:21:22;101107.72;;;8.24;100.00
25560;BME280;13450;49.374;8.584;2024-03-22T02:23:47;101105.75;;;8.26;100.00
25560;BME280;13450;49.374;8.584;2024-03-22T02:26:13;101098.25;;;8.30;100.00
25560;BME280;13450;49.374;8.584;2024-03-22T02:28:38;101092.63;;;8.33;100.00
25560;BME280;13450;49.374;8.584;2024-03-22T02:31:03;101092.63;;;8.33;100.00
25560;BME280;13450;49.374;8.584;2024-03-22T02:33:31;101090.09;;;8.31;100.00
25560;BME280;13450;49.374;8.584;2024-03-22T02:35:56;101092.09;;;8.29;100.00
25560;BME280;13450;49.374;8.584;2024-03-22T02:38:22;101093.25;;;8.27;100.00
25560;BME280;13450;49.374;8.584;2024-03-22T02:40:50;101093.69;;;8.22;100.00
25560;BME280;13450;49.374;8.584;2024-03-22T02:43:15;101098.97;;;8.14;100.00
25560;BME280;13450;49.374;8.584;2024-03-22T02:45:44;101097.06;;;8.06;100.00
25560;BME280;13450;49.374;8.584;2024-03-22T02:48:09;101093.25;;;7.90;100.00
25560;BME280;13450;49.374;8.584;2024-03-22T02:50:38;101093.31;;;7.80;100.00
25560;BME280;13450;49.374;8.584;2024-03-22T02:53:04;101092.84;;;7.67;100.00
25560;BME280;13450;49.374;8.584;2024-03-22T02:55:30;101096.56;;;7.56;100.00
25560;BME280;13450;49.374;8.584;2024-03-22T02:58:00;101079.69;;;7.37;100.00
25560;BME280;13450;49.374;8.584;2024-03-22T03:00:26;101080.06;;;7.24;100.00
25560;BME280;13450;49.374;8.584;2024-03-22T03:02:51;101080.09;;;7.14;100.00
25560;BME280;13450;49.374;8.584;2024-03-22T03:05:19;101085.31;;;7.06;100.00
25560;BME280;13450;49.374;8.584;2024-03-22T03:07:44;101076.06;;;7.00;100.00
25560;BME280;13450;49.374;8.584;2024-03-22T03:10:09;101078.34;;;6.95;100.00
25560;BME280;13450;49.374;8.584;2024-03-22T03:12:35;101070.50;;;6.93;100.00
25560;BME280;13450;49.374;8.584;2024-03-22T03:15:00;101067.25;;;7.00;100.00
25560;BME280;13450;49.374;8.584;2024-03-22T03:17:28;101057.84;;;7.05;100.00
25560;BME280;13450;49.374;8.584;2024-03-22T03:19:53;101055.16;;;7.05;100.00
25560;BME280;13450;49.374;8.584;2024-03-22T03:22:19;101047.03;;;7.07;100.00
25560;BME280;13450;49.374;8.584;2024-03-22T03:24:44;101049.97;;;7.14;100.00
25560;BME280;13450;49.374;8.584;2024-03-22T03:27:09;101051.47;;;7.16;100.00
25560;BME280;13450;49.374;8.584;2024-03-22T03:29:34;101059.03;;;7.21;100.00
25560;BME280;13450;49.374;8.584;2024-03-22T03:32:00;101049.06;;;7.23;100.00
25560;BME280;13450;49.374;8.584;2024-03-22T03:34:25;101057.63;;;7.27;100.00
25560;BME280;13450;49.374;8.584;2024-03-22T03:36:50;101051.84;;;7.31;100.00
25560;BME280;13450;49.374;8.584;2024-03-22T03:39:16;101058.53;;;7.36;100.00
25560;BME280;13450;49.374;8.584;2024-03-22T03:41:41;101064.72;;;7.36;100.00
25560;BME280;13450;49.374;8.584;2024-03-22T03:44:06;101064.16;;;7.32;100.00
25560;BME280;13450;49.374;8.584;2024-03-22T03:46:32;101059.16;;;7.29;100.00
25560;BME280;13450;49.374;8.584;2024-03-22T03:48:57;101061.94;;;7.28;100.00
25560;BME280;13450;49.374;8.584;2024-03-22T03:51:23;101048.25;;;7.23;100.00
25560;BME280;13450;49.374;8.584;2024-03-22T03:53:48;101055.53;;;7.20;100.00
25560;BME280;13450;49.374;8.584;2024-03-22T03:56:13;101050.66;;;7.16;100.00
25560;BME280;13450;49.374;8.584;2024-03-22T03:58:39;101045.78;;;7.11;100.00
25560;BME280;13450;49.374;8.584;2024-03-22T04:01:08;101041.03;;;7.05;100.00
25560;BME280;13450;49.374;8.584;2024-03-22T04:03:33;101046.66;;;7.02;100.00
25560;BME280;13450;49.374;8.584;2024-03-22T04:05:59;101041.22;;;6.93;100.00
25560;BME280;13450;49.374;8.584;2024-03-22T04:08:25;101038.88;;;6.90;100.00
25560;BME280;13450;49.374;8.584;2024-03-22T04:10:54;101035.66;;;6.87;100.00
25560;BME280;13450;49.374;8.584;2024-03-22T04:13:22;101044.75;;;6.84;100.00
25560;BME280;13450;49.374;8.584;2024-03-22T04:15:47;101046.03;;;6.80;100.00
25560;BME280;13450;49.374;8.584;2024-03-22T04:18:12;101043.69;;;6.77;100.00
25560;BME280;13450;49.374;8.584;2024-03-22T04:20:40;101039.47;;;6.74;100.00
25560;BME280;13450;49.374;8.584;2024-03-22T04:23:06;101035.28;;;6.72;100.00
25560;BME280;13450;49.374;8.584;2024-03-22T04:25:31;101037.41;;;6.68;100.00
25560;BME280;13450;49.374;8.584;2024-03-22T04:27:56;101043.69;;;6.67;100.00
25560;BME280;13450;49.374;8.584;2024-03-22T04:30:24;101036.16;;;6.62;100.00
25560;BME280;13450;49.374;8.584;2024-03-22T04:32:49;101043.00;;;6.65;100.00
25560;BME280;13450;49.374;8.584;2024-03-22T04:35:15;101034.47;;;6.61;100.00
25560;BME280;13450;49.374;8.584;2024-03-22T04:37:40;101034.47;;;6.61;100.00
25560;BME280;13450;49.374;8.584;2024-03-22T04:40:08;101032.81;;;6.60;100.00
25560;BME280;13450;49.374;8.584;2024-03-22T04:42:35;101031.41;;;6.66;100.00
25560;BME280;13450;49.374;8.584;2024-03-22T04:45:00;101036.72;;;6.66;100.00
25560;BME280;13450;49.374;8.584;2024-03-22T04:47:25;101028.03;;;6.64;100.00
25560;BME280;13450;49.374;8.584;2024-03-22T04:49:51;101028.88;;;6.64;100.00
25560;BME280;13450;49.374;8.584;2024-03-22T04:52:16;101032.53;;;6.63;100.00
25560;BME280;13450;49.374;8.584;2024-03-22T04:54:41;101026.50;;;6.61;100.00
25560;BME280;13450;49.374;8.584;2024-03-22T04:57:07;101027.75;;;6.57;100.00
25560;BME280;13450;49.374;8.584;2024-03-22T04:59:32;101023.72;;;6.53;100.00
25560;BME280;13450;49.374;8.584;2024-03-22T05:02:00;101022.31;;;6.49;100.00
25560;BME280;13450;49.374;8.584;2024-03-22T05:04:25;101014.66;;;6.46;100.00
25560;BME280;13450;49.374;8.584;2024-03-22T05:06:56;101018.56;;;6.41;100.00
25560;BME280;13450;49.374;8.584;2024-03-22T05:09:21;101019.00;;;6.37;100.00
25560;BME280;13450;49.374;8.584;2024-03-22T05:11:46;101027.41;;;6.32;100.00
25560;BME280;13450;49.374;8.584;2024-03-22T05:14:15;101018.03;;;6.28;100.00
25560;BME280;13450;49.374;8.584;2024-03-22T05:16:41;101016.66;;;6.24;100.00
25560;BME280;13450;49.374;8.584;2024-03-22T05:19:06;101014.97;;;6.23;100.00
25560;BME280;13450;49.374;8.584;2024-03-22T05:21:31;101014.97;;;6.23;100.00
25560;BME280;13450;49.374;8.584;2024-03-22T05:23:59;101014.28;;;6.21;100.00
25560;BME280;13450;49.374;8.584;2024-03-22T05:26:24;101008.94;;;6.21;100.00
25560;BME280;13450;49.374;8.584;2024-03-22T05:28:49;101017.91;;;6.20;100.00
25560;BME280;13450;49.374;8.584;2024-03-22T05:31:15;101002.94;;;6.19;100.00
25560;BME280;13450;49.374;8.584;2024-03-22T05:33:40;101013.41;;;6.20;100.00
25560;BME280;13450;49.374;8.584;2024-03-22T05:36:06;101002.94;;;6.19;100.00
25560;BME280;13450;49.374;8.584;2024-03-22T05:38:32;100999.31;;;6.20;100.00
25560;BME280;13450;49.374;8.584;2024-03-22T05:40:57;101008.28;;;6.19;100.00
25560;BME280;13450;49.374;8.584;2024-03-22T05:43:22;101002.94;;;6.19;100.00
25560;BME280;13450;49.374;8.584;2024-03-22T05:45:48;101006.44;;;6.19;100.00
25560;BME280;13450;49.374;8.584;2024-03-22T05:48:13;101003.63;;;6.21;100.00
25560;BME280;13450;49.374;8.584;2024-03-22T05:50:38;101008.09;;;6.20;100.00
25560;BME280;13450;49.374;8.584;2024-03-22T05:53:04;101009.66;;;6.23;100.00
25560;BME280;13450;49.374;8.584;2024-03-22T05:55:29;101003.34;;;6.24;100.00
25560;BME280;13450;49.374;8.584;2024-03-22T05:57:56;101002.38;;;6.25;100.00
25560;BME280;13450;49.374;8.584;2024-03-22T06:00:21;101002.09;;;6.28;100.00
25560;BME280;13450;49.374;8.584;2024-03-22T06:02:47;101005.44;;;6.30;100.00
25560;BME280;13450;49.374;8.584;2024-03-22T06:05:12;100998.16;;;6.32;100.00
25560;BME280;13450;49.374;8.584;2024-03-22T06:07:38;101006.41;;;6.39;100.00
25560;BME280;13450;49.374;8.584;2024-03-22T06:10:09;101004.03;;;6.46;100.00
25560;BME280;13450;49.374;8.584;2024-03-22T06:12:37;101006.78;;;6.54;100.00
25560;BME280;13450;49.374;8.584;2024-03-22T06:15:02;101009.53;;;6.62;100.00
25560;BME280;13450;49.374;8.584;2024-03-22T06:17:31;100993.03;;;6.69;100.00
25560;BME280;13450;49.374;8.584;2024-03-22T06:19:56;100996.91;;;6.74;100.00
25560;BME280;13450;49.374;8.584;2024-03-22T06:22:22;100991.25;;;6.87;100.00
25560;BME280;13450;49.374;8.584;2024-03-22T06:24:47;100996.13;;;6.92;100.00
25560;BME280;13450;49.374;8.584;2024-03-22T06:27:12;100988.25;;;7.00;100.00
25560;BME280;13450;49.374;8.584;2024-03-22T06:29:42;100992.16;;;7.06;100.00
25560;BME280;13450;49.374;8.584;2024-03-22T06:32:07;100982.97;;;7.18;100.00
25560;BME280;13450;49.374;8.584;2024-03-22T06:34:33;100987.41;;;7.28;100.00
25560;BME280;13450;49.374;8.584;2024-03-22T06:36:58;100982.84;;;7.38;100.00
25560;BME280;13450;49.374;8.584;2024-03-22T06:39:23;100980.56;;;7.43;100.00
25560;BME280;13450;49.374;8.584;2024-03-22T06:41:49;100972.94;;;7.49;100.00
25560;BME280;13450;49.374;8.584;2024-03-22T06:44:14;100981.16;;;7.55;100.00
25560;BME280;13450;49.374;8.584;2024-03-22T06:46:39;100970.59;;;7.64;100.00
25560;BME280;13450;49.374;8.584;2024-03-22T06:49:05;100970.81;;;7.70;100.00
25560;BME280;13450;49.374;8.584;2024-03-22T06:51:30;100969.22;;;7.78;100.00
25560;BME280;13450;49.374;8.584;2024-03-22T06:54:01;100966.00;;;7.92;100.00
25560;BME280;13450;49.374;8.584;2024-03-22T06:56:26;100967.44;;;8.05;100.00
25560;BME280;13450;49.374;8.584;2024-03-22T06:58:51;100970.53;;;8.18;100.00
25560;BME280;13450;49.374;8.584;2024-03-22T07:01:17;100971.09;;;8.30;100.00
25560;BME280;13450;49.374;8.584;2024-03-22T07:03:42;100972.38;;;8.44;100.00
25560;BME280;13450;49.374;8.584;2024-03-22T07:06:10;100965.47;;;8.60;100.00
25560;BME280;13450;49.374;8.584;2024-03-22T07:08:40;100964.19;;;8.72;100.00
25560;BME280;13450;49.374;8.584;2024-03-22T07:11:06;100960.56;;;8.82;100.00
25560;BME280;13450;49.374;8.584;2024-03-22T07:13:35;100957.94;;;8.90;100.00
25560;BME280;13450;49.374;8.584;2024-03-22T07:16:01;100947.63;;;9.03;100.00
25560;BME280;13450;49.374;8.584;2024-03-22T07:18:26;100941.00;;;9.16;100.00
25560;BME280;13450;49.374;8.584;2024-03-22T07:20:52;100943.84;;;9.31;100.00
25560;BME280;13450;49.374;8.584;2024-03-22T07:23:17;100943.03;;;9.55;100.00
25560;BME280;13450;49.374;8.584;2024-03-22T07:25:45;100943.69;;;9.82;100.00
25560;BME280;13450;49.374;8.584;2024-03-22T07:28:13;100935.50;;;10.09;100.00
25560;BME280;13450;49.374;8.584;2024-03-22T07:30:39;100940.28;;;10.39;100.00
25560;BME280;13450;49.374;8.584;2024-03-22T07:33:04;100939.53;;;10.70;100.00
25560;BME280;13450;49.374;8.584;2024-03-22T07:35:29;100939.72;;;11.00;100.00
25560;BME280;13450;49.374;8.584;2024-03-22T07:37:55;100939.88;;;11.30;100.00
25560;BME280;13450;49.374;8.584;2024-03-22T07:40:21;100936.31;;;11.61;100.00
25560;BME280;13450;49.374;8.584;2024-03-22T07:42:47;100943.44;;;11.93;100.00
25560;BME280;13450;49.374;8.584;2024-03-22T07:45:12;100929.69;;;12.26;100.00
25560;BME280;13450;49.374;8.584;2024-03-22T07:47:37;100926.84;;;12.42;100.00
25560;BME280;13450;49.374;8.584;2024-03-22T07:50:04;100929.22;;;12.67;100.00
25560;BME280;13450;49.374;8.584;2024-03-22T07:52:29;100925.63;;;12.75;100.00
25560;BME280;13450;49.374;8.584;2024-03-22T07:54:54;100924.56;;;12.91;100.00
25560;BME280;13450;49.374;8.584;2024-03-22T07:57:20;100928.81;;;13.01;100.00
25560;BME280;13450;49.374;8.584;2024-03-22T07:59:45;100928.44;;;13.04;100.00
25560;BME280;13450;49.374;8.584;2024-03-22T08:02:11;100923.69;;;13.06;100.00
25560;BME280;13450;49.374;8.584;2024-03-22T08:04:36;100919.00;;;13.15;100.00
25560;BME280;13450;49.374;8.584;2024-03-22T08:07:02;100915.84;;;13.26;100.00
25560;BME280;13450;49.374;8.584;2024-03-22T08:09:27;100918.59;;;13.33;100.00
25560;BME280;13450;49.374;8.584;2024-03-22T08:11:53;100918.91;;;13.45;100.00
25560;BME280;13450;49.374;8.584;2024-03-22T08:14:18;100914.53;;;13.59;100.00
25560;BME280;13450;49.374;8.584;2024-03-22T08:16:43;100917.19;;;13.81;100.00
25560;BME280;13450;49.374;8.584;2024-03-22T08:19:08;100903.28;;;14.06;100.00
25560;BME280;13450;49.374;8.584;2024-03-22T08:21:34;100905.91;;;14.28;100.00
25560;BME280;13450;49.374;8.584;2024-03-22T08:23:59;100909.28;;;14.43;100.00
25560;BME280;13450;49.374;8.584;2024-03-22T08:26:25;100898.72;;;14.42;100.00
25560;BME280;13450;49.374;8.584;2024-03-22T08:28:50;100901.53;;;14.69;100.00
25560;BME280;13450;49.374;8.584;2024-03-22T08:31:16;100899.88;;;14.74;100.00
25560;BME280;13450;49.374;8.584;2024-03-22T08:33:42;100903.47;;;14.82;100.00
25560;BME280;13450;49.374;8.584;2024-03-22T08:36:08;100893.09;;;14.78;100.00
25560;BME280;13450;49.374;8.584;2024-03-22T08:38:33;100894.34;;;14.76;100.00
25560;BME280;13450;49.374;8.584;2024-03-22T08:41:01;100893.94;;;14.79;100.00
25560;BME280;13450;49.374;8.584;2024-03-22T08:43:26;100886.66;;;14.80;100.00
25560;BME280;13450;49.374;8.584;2024-03-22T08:45:54;100889.81;;;14.90;100.00
25560;BME280;13450;49.374;8.584;2024-03-22T08:48:19;100891.50;;;15.04;100.00
25560;BME280;13450;49.374;8.584;2024-03-22T08:50:44;100888.00;;;15.17;100.00
25560;BME280;13450;49.374;8.584;2024-03-22T08:53:10;100886.38;;;15.30;100.00
25560;BME280;13450;49.374;8.584;2024-03-22T08:55:35;100882.63;;;15.24;100.00
25560;BME280;13450;49.374;8.584;2024-03-22T08:58:01;100875.78;;;15.28;100.00
25560;BME280;13450;49.374;8.584;2024-03-22T09:00:26;100870.59;;;15.40;100.00
25560;BME280;13450;49.374;8.584;2024-03-22T09:02:52;100877.22;;;15.17;100.00
25560;BME280;13450;49.374;8.584;2024-03-22T09:05:17;100868.31;;;15.03;100.00
25560;BME280;13450;49.374;8.584;2024-03-22T09:07:43;100875.13;;;14.93;100.00
25560;BME280;13450;49.374;8.584;2024-03-22T09:10:09;100870.97;;;14.90;100.00
25560;BME280;13450;49.374;8.584;2024-03-22T09:12:34;100871.38;;;14.87;100.00
25560;BME280;13450;49.374;8.584;2024-03-22T09:15:00;100857.47;;;14.83;100.00
25560;BME280;13450;49.374;8.584;2024-03-22T09:17:28;100860.19;;;14.90;100.00
25560;BME280;13450;49.374;8.584;2024-03-22T09:19:58;100849.78;;;14.80;100.00
25560;BME280;13450;49.374;8.584;2024-03-22T09:22:23;100853.94;;;14.83;100.00
25560;BME280;13450;49.374;8.584;2024-03-22T09:24:48;100848.16;;;14.93;100.00
25560;BME280;13450;49.374;8.584;2024-03-22T09:27:14;100845.09;;;15.02;100.00
25560;BME280;13450;49.374;8.584;2024-03-22T09:29:39;100835.78;;;15.12;100.00
25560;BME280;13450;49.374;8.584;2024-03-22T09:32:09;100834.94;;;15.11;100.00
25560;BME280;13450;49.374;8.584;2024-03-22T09:34:36;100836.59;;;15.19;100.00
25560;BME280;13450;49.374;8.584;2024-03-22T09:37:01;100833.88;;;15.19;100.00
25560;BME280;13450;49.374;8.584;2024-03-22T09:39:29;100832.66;;;15.28;100.00
25560;BME280;13450;49.374;8.584;2024-03-22T09:41:57;100829.16;;;15.41;100.00
25560;BME280;13450;49.374;8.584;2024-03-22T09:44:23;100829.94;;;15.42;100.00
25560;BME280;13450;49.374;8.584;2024-03-22T09:46:50;100818.75;;;15.59;100.00
25560;BME280;13450;49.374;8.584;2024-03-22T09:49:16;100818.34;;;15.68;100.00
25560;BME280;13450;49.374;8.584;2024-03-22T09:51:44;100814.53;;;16.03;100.00
25560;BME280;13450;49.374;8.584;2024-03-22T09:54:12;100805.53;;;16.23;100.00
25560;BME280;13450;49.374;8.584;2024-03-22T09:56:42;100818.50;;;16.53;100.00
25560;BME280;13450;49.374;8.584;2024-03-22T09:59:07;100816.38;;;16.55;96.46
25560;BME280;13450;49.374;8.584;2024-03-22T10:01:36;100815.38;;;16.56;93.00
25560;BME280;13450;49.374;8.584;2024-03-22T10:04:05;100815.97;;;16.58;95.41
25560;BME280;13450;49.374;8.584;2024-03-22T10:06:30;100813.19;;;16.72;89.96
25560;BME280;13450;49.374;8.584;2024-03-22T10:09:00;100806.72;;;16.73;92.18
25560;BME280;13450;49.374;8.584;2024-03-22T10:11:27;100811.81;;;16.56;90.41
25560;BME280;13450;49.374;8.584;2024-03-22T10:13:52;100807.50;;;16.48;92.38
25560;BME280;13450;49.374;8.584;2024-03-22T10:16:20;100798.56;;;16.47;90.07
25560;BME280;13450;49.374;8.584;2024-03-22T10:18:50;100796.63;;;16.23;92.87
25560;BME280;13450;49.374;8.584;2024-03-22T10:21:18;100789.03;;;16.45;93.05
25560;BME280;13450;49.374;8.584;2024-03-22T10:23:44;100781.38;;;17.06;89.60
25560;BME280;13450;49.374;8.584;2024-03-22T10:26:12;100778.41;;;16.82;88.35
25560;BME280;13450;49.374;8.584;2024-03-22T10:28:44;100777.19;;;17.10;88.90
25560;BME280;13450;49.374;8.584;2024-03-22T10:31:11;100777.19;;;17.36;86.88
25560;BME280;13450;49.374;8.584;2024-03-22T10:33:36;100771.38;;;17.32;86.76
25560;BME280;13450;49.374;8.584;2024-03-22T10:36:04;100770.06;;;17.42;89.54
25560;BME280;13450;49.374;8.584;2024-03-22T10:38:30;100763.09;;;17.27;88.13
25560;BME280;13450;49.374;8.584;2024-03-22T10:40:57;100754.44;;;17.44;86.25
25560;BME280;13450;49.374;8.584;2024-03-22T10:43:22;100754.81;;;16.96;89.84
25560;BME280;13450;49.374;8.584;2024-03-22T10:45:50;100757.69;;;17.27;87.89
25560;BME280;13450;49.374;8.584;2024-03-22T10:48:21;100747.66;;;16.83;89.08
25560;BME280;13450;49.374;8.584;2024-03-22T10:50:52;100755.06;;;16.63;92.29
25560;BME280;13450;49.374;8.584;2024-03-22T10:53:21;100738.22;;;16.67;92.16
25560;BME280;13450;49.374;8.584;2024-03-22T10:55:50;100741.53;;;16.63;93.44
25560;BME280;13450;49.374;8.584;2024-03-22T10:58:17;100741.06;;;16.72;92.94
25560;BME280;13450;49.374;8.584;2024-03-22T11:00:43;100733.84;;;16.92;91.96
25560;BME280;13450;49.374;8.584;2024-03-22T11:03:09;100735.69;;;16.98;91.73
25560;BME280;13450;49.374;8.584;2024-03-22T11:05:44;100728.75;;;17.09;90.75
25560;BME280;13450;49.374;8.584;2024-03-22T11:08:10;100729.75;;;17.15;86.18
25560;BME280;13450;49.374;8.584;2024-03-22T11:10:36;100717.50;;;16.80;87.34
25560;BME280;13450;49.374;8.584;2024-03-22T11:13:06;100706.91;;;17.10;87.39
25560;BME280;13450;49.374;8.584;2024-03-22T11:15:33;100708.50;;;16.93;88.49
25560;BME280;13450;49.374;8.584;2024-03-22T11:18:00;100704.44;;;17.09;88.22
25560;BME280;13450;49.374;8.584;2024-03-22T11:20:27;100690.84;;;17.16;87.85
25560;BME280;13450;49.374;8.584;2024-03-22T11:22:52;100689.50;;;17.25;87.73
25560;BME280;13450;49.374;8.584;2024-03-22T11:25:20;100680.34;;;17.45;86.38
25560;BME280;13450;49.374;8.584;2024-03-22T11:27:46;100675.53;;;17.65;84.64
25560;BME280;13450;49.374;8.584;2024-03-22T11:30:12;100671.81;;;17.78;84.10
25560;BME280;13450;49.374;8.584;2024-03-22T11:32:38;100674.09;;;17.63;83.36
25560;BME280;13450;49.374;8.584;2024-03-22T11:35:14;100661.84;;;17.79;81.89
25560;BME280;13450;49.374;8.584;2024-03-22T11:37:40;100664.88;;;17.52;81.91
25560;BME280;13450;49.374;8.584;2024-03-22T11:40:09;100666.00;;;17.63;82.30
25560;BME280;13450;49.374;8.584;2024-03-22T11:42:36;100659.63;;;17.88;79.47
25560;BME280;13450;49.374;8.584;2024-03-22T11:45:03;100652.38;;;18.00;79.05
25560;BME280;13450;49.374;8.584;2024-03-22T11:47:30;100640.34;;;18.27;74.30
25560;BME280;13450;49.374;8.584;2024-03-22T11:49:55;100632.28;;;18.39;73.79
25560;BME280;13450;49.374;8.584;2024-03-22T11:52:26;100644.31;;;18.55;73.40
25560;BME280;13450;49.374;8.584;2024-03-22T11:54:56;100644.22;;;18.74;72.34
25560;BME280;13450;49.374;8.584;2024-03-22T11:57:23;100637.81;;;19.04;68.71
25560;BME280;13450;49.374;8.584;2024-03-22T11:59:49;100628.19;;;19.08;67.32
25560;BME280;13450;49.374;8.584;2024-03-22T12:02:14;100632.06;;;19.65;64.60
25560;BME280;13450;49.374;8.584;2024-03-22T12:04:50;100620.84;;;20.03;63.20
25560;BME280;13450;49.374;8.584;2024-03-22T12:07:17;100619.81;;;20.38;63.36
25560;BME280;13450;49.374;8.584;2024-03-22T12:09:44;100614.63;;;21.77;56.82
25560;BME280;13450;49.374;8.584;2024-03-22T12:12:11;100611.41;;;22.79;52.24
25560;BME280;13450;49.374;8.584;2024-03-22T12:14:37;100605.38;;;23.25;49.24
25560;BME280;13450;49.374;8.584;2024-03-22T12:17:04;100611.91;;;22.76;47.23
25560;BME280;13450;49.374;8.584;2024-03-22T12:19:29;100602.97;;;22.80;45.77
25560;BME280;13450;49.374;8.584;2024-03-22T12:21:57;100606.00;;;22.89;46.05
25560;BME280;13450;49.374;8.584;2024-03-22T12:24:23;100597.06;;;23.04;45.43
25560;BME280;13450;49.374;8.584;2024-03-22T12:26:49;100592.28;;;23.32;44.50
25560;BME280;13450;49.374;8.584;2024-03-22T12:29:20;100588.59;;;23.64;43.50
25560;BME280;13450;49.374;8.584;2024-03-22T12:31:46;100588.63;;;23.85;42.99
25560;BME280;13450;49.374;8.584;2024-03-22T12:34:14;100574.88;;;23.44;43.24
25560;BME280;13450;49.374;8.584;2024-03-22T12:36:39;100567.34;;;24.24;42.31
25560;BME280;13450;49.374;8.584;2024-03-22T12:39:05;100565.75;;;25.15;41.36
25560;BME280;13450;49.374;8.584;2024-03-22T12:41:30;100556.31;;;25.87;38.84